Time;durP1;ratioP1;P1;durP2;ratioP2;P2;SDS_P1;SDS_P2;PMS_P1;PMS_P2;Temp;Humidity;BMP_temperature;BMP_pressure;BME280_temperature;BME280_humidity;BME280_pressure;Samples;Min_cycle;Max_cycle;Signal;HPM_P1;HPM_P2
2024/03/26 00:02:58;;;;;;;55.90;24.30;;;;;;;0.56;82.01;99452.47;128258;1276;127767;-63
2024/03/26 00:06:06;;;;;;;46.70;24.30;;;;;;;0.56;82.26;99452.13;128688;1256;114725;-62
2024/03/26 00:09:16;;;;;;;44.90;23.80;;;;;;;0.55;82.17;99454.62;128594;1254;113452;-62
2024/03/26 00:12:22;;;;;;;51.90;27.40;;;;;;;0.53;82.36;99456.40;128682;1252;113469;-62
2024/03/26 00:15:31;;;;;;;46.50;25.60;;;;;;;0.52;81.99;99451.16;128571;1254;113659;-63
2024/03/26 00:18:36;;;;;;;47.10;24.40;;;;;;;0.49;82.26;99445.61;128706;1256;129119;-61
2024/03/26 00:21:40;;;;;;;50.30;25.50;;;;;;;0.47;82.24;99451.09;128653;1257;114723;-62
2024/03/26 00:24:47;;;;;;;54.00;25.80;;;;;;;0.45;82.20;99455.70;128730;1253;113459;-63
2024/03/26 00:27:54;;;;;;;53.70;25.50;;;;;;;0.42;82.07;99457.88;128658;1259;114725;-63
2024/03/26 00:31:03;;;;;;;56.10;25.80;;;;;;;0.40;81.97;99465.31;128647;1255;113533;-63
2024/03/26 00:34:14;;;;;;;58.40;29.20;;;;;;;0.38;82.12;99465.34;128500;1276;127794;-63
2024/03/26 00:37:21;;;;;;;69.90;29.40;;;;;;;0.35;81.93;99458.73;128776;1254;114784;-63
2024/03/26 00:40:24;;;;;;;75.70;31.40;;;;;;;0.33;82.23;99456.69;128741;1252;113462;-63
2024/03/26 00:43:31;;;;;;;76.90;34.40;;;;;;;0.31;82.35;99450.73;128700;1254;113518;-62
2024/03/26 00:46:36;;;;;;;82.20;32.80;;;;;;;0.29;82.27;99454.30;128212;1256;113660;-62
2024/03/26 00:49:45;;;;;;;82.70;32.50;;;;;;;0.27;82.35;99458.35;128657;1257;128722;-63
2024/03/26 00:52:51;;;;;;;67.00;26.60;;;;;;;0.28;82.98;99450.80;128737;1258;114700;-63
2024/03/26 00:55:57;;;;;;;59.10;29.30;;;;;;;0.31;83.04;99450.38;128594;1254;113546;-63
2024/03/26 00:59:02;;;;;;;42.10;22.90;;;;;;;0.32;82.98;99445.64;128695;1252;113465;-62
2024/03/26 01:02:10;;;;;;;46.50;23.40;;;;;;;0.33;83.39;99444.56;128668;1257;113500;-64
2024/03/26 01:05:17;;;;;;;48.20;25.40;;;;;;;0.34;83.28;99446.98;128608;1276;128413;-63
2024/03/26 01:08:29;;;;;;;48.90;23.20;;;;;;;0.34;83.48;99454.89;128600;1253;115196;-63
2024/03/26 01:11:36;;;;;;;43.80;21.00;;;;;;;0.33;83.21;99449.11;128801;1253;113494;-63
2024/03/26 01:14:44;;;;;;;48.60;23.20;;;;;;;0.33;83.46;99450.87;128790;1254;113512;-62
2024/03/26 01:17:49;;;;;;;48.80;22.70;;;;;;;0.32;83.24;99449.49;128716;1257;113498;-64
2024/03/26 01:20:57;;;;;;;48.30;25.20;;;;;;;0.32;83.56;99449.14;128516;1276;128748;-62
2024/03/26 01:24:01;;;;;;;54.20;25.90;;;;;;;0.32;83.57;99450.02;128637;1257;114726;-64
2024/03/26 01:27:07;;;;;;;64.10;33.30;;;;;;;0.30;83.52;99450.57;128504;1254;113604;-62
2024/03/26 01:30:12;;;;;;;68.30;32.00;;;;;;;0.29;83.51;99451.82;128633;1258;113566;-63
2024/03/26 01:33:21;;;;;;;51.30;25.80;;;;;;;0.28;83.37;99449.41;128520;1257;113543;-62
2024/03/26 01:36:28;;;;;;;51.30;26.00;;;;;;;0.26;83.69;99449.77;128498;1276;128698;-63
2024/03/26 01:39:35;;;;;;;51.30;23.60;;;;;;;0.24;83.49;99448.25;128262;1262;114778;-63
2024/03/26 01:42:42;;;;;;;42.30;24.70;;;;;;;0.23;83.66;99444.05;128562;1254;113541;-63
2024/03/26 01:45:48;;;;;;;41.50;22.40;;;;;;;0.21;83.58;99440.92;128347;1262;113682;-62
2024/03/26 01:49:04;;;;;;;44.30;24.90;;;;;;;0.19;83.63;99438.87;128558;1254;113464;-63
2024/03/26 01:52:12;;;;;;;39.00;22.80;;;;;;;0.18;83.69;99444.51;128500;1276;128264;-64
2024/03/26 01:55:20;;;;;;;65.30;31.00;;;;;;;0.15;83.83;99440.37;128552;1257;114729;-63
2024/03/26 01:58:38;;;;;;;;;;;;;;;;;;;;;
2024/03/26 02:06:12;;;;;;;51.30;25.60;;;;;;;0.06;83.66;99438.98;128760;1257;113545;-63
2024/03/26 02:09:17;;;;;;;41.40;23.70;;;;;;;0.02;83.54;99437.63;128737;1276;128794;-63
2024/03/26 02:12:19;;;;;;;33.20;17.10;;;;;;;0.00;83.94;99431.36;131733;1254;114718;-64
2024/03/26 02:15:28;;;;;;;35.90;20.30;;;;;;;-0.02;84.36;99425.60;128549;1254;113567;-63
2024/03/26 02:18:36;;;;;;;36.70;18.60;;;;;;;-0.02;84.32;99426.66;128600;1259;113538;-64
2024/03/26 02:21:39;;;;;;;33.70;19.00;;;;;;;-0.04;84.51;99424.58;131691;1254;113547;-64
2024/03/26 02:24:44;;;;;;;29.00;17.20;;;;;;;-0.03;85.02;99415.29;128452;1254;113538;-65
2024/03/26 02:27:52;;;;;;;26.60;14.40;;;;;;;-0.03;85.01;99415.25;128633;1258;114729;-63
2024/03/26 02:30:57;;;;;;;24.50;13.00;;;;;;;-0.01;85.31;99413.31;128620;1258;113546;-63
2024/03/26 02:34:00;;;;;;;23.10;12.30;;;;;;;0.01;85.31;99418.88;128264;1253;113632;-63
2024/03/26 02:37:07;;;;;;;27.00;14.60;;;;;;;0.02;85.29;99420.26;128630;1259;113607;-63
2024/03/26 02:40:23;;;;;;;28.80;15.80;;;;;;;0.04;85.36;99423.57;128604;1254;128846;-63
2024/03/26 02:43:32;;;;;;;32.90;17.30;;;;;;;0.05;85.43;99423.00;128691;1257;114758;-62
2024/03/26 02:46:38;;;;;;;31.40;14.90;;;;;;;0.05;85.02;99417.93;128605;1257;113561;-63
2024/03/26 02:49:42;;;;;;;27.80;14.50;;;;;;;0.04;85.27;99411.62;131510;1254;113513;-64
2024/03/26 02:52:47;;;;;;;35.80;16.20;;;;;;;0.04;85.41;99405.66;128613;1257;113586;-62
2024/03/26 02:55:52;;;;;;;;;;;;;;;0.05;85.58;99404.23;128499;1276;129594;-62
2024/03/26 02:59:03;;;;;;;25.50;11.50;;;;;;;0.03;85.67;99400.94;128599;1258;114723;-63
2024/03/26 03:02:09;;;;;;;26.70;14.00;;;;;;;0.01;85.86;99392.55;128639;1254;113505;-63
2024/03/26 03:05:19;;;;;;;30.80;15.60;;;;;;;-0.02;85.76;99398.94;128697;1254;113499;-63
2024/03/26 03:08:24;;;;;;;26.10;13.80;;;;;;;-0.03;85.72;99402.64;128631;1259;113534;-63
2024/03/26 03:11:29;;;;;;;26.50;12.10;;;;;;;-0.03;85.74;99403.52;128544;1254;114477;-63
2024/03/26 03:14:33;;;;;;;23.00;12.40;;;;;;;-0.04;85.62;99396.67;128604;1259;114719;-63
2024/03/26 03:17:41;;;;;;;24.20;13.40;;;;;;;-0.04;86.09;99395.98;128588;1254;113552;-63
2024/03/26 03:20:45;;;;;;;23.00;13.60;;;;;;;-0.05;86.07;99395.30;128637;1253;113570;-63
2024/03/26 03:23:51;;;;;;;27.70;14.60;;;;;;;-0.04;86.14;99391.08;128559;1254;113475;-62
2024/03/26 03:26:58;;;;;;;19.60;11.00;;;;;;;-0.03;86.01;99394.04;128680;1276;128880;-63
2024/03/26 03:30:03;;;;;;;28.20;15.70;;;;;;;-0.04;85.98;99395.80;128622;1258;114742;-63
2024/03/26 03:33:11;;;;;;;24.40;14.70;;;;;;;-0.03;86.22;99396.15;128258;1254;113744;-63
2024/03/26 03:36:21;;;;;;;27.90;15.10;;;;;;;-0.04;85.96;99394.77;128648;1254;113497;-63
2024/03/26 03:39:26;;;;;;;26.60;13.50;;;;;;;-0.05;85.96;99392.33;128599;1259;113538;-63
2024/03/26 03:42:37;;;;;;;28.40;15.30;;;;;;;-0.07;85.79;99396.91;128590;1261;128520;-63
2024/03/26 03:45:44;;;;;;;36.50;17.80;;;;;;;-0.08;85.66;99396.79;128384;1261;114846;-62
2024/03/26 03:48:49;;;;;;;32.60;16.30;;;;;;;-0.12;85.36;99394.22;128572;1257;113436;-62
2024/03/26 03:52:00;;;;;;;40.50;15.90;;;;;;;-0.15;85.37;99391.82;128477;1254;113580;-64
2024/03/26 03:55:07;;;;;;;41.80;17.60;;;;;;;-0.19;85.63;99387.69;128466;1259;113436;-64
2024/03/26 03:58:14;;;;;;;43.70;19.20;;;;;;;-0.22;85.61;99390.39;131712;1254;127661;-63
2024/03/26 04:01:19;;;;;;;37.60;18.80;;;;;;;-0.24;85.52;99395.86;128592;1259;114809;-62
2024/03/26 04:04:25;;;;;;;38.50;18.70;;;;;;;-0.25;85.55;99399.59;128641;1259;113546;-64
2024/03/26 04:07:28;;;;;;;38.00;16.70;;;;;;;-0.29;85.41;99397.89;131596;1254;114656;-64
2024/03/26 04:10:34;;;;;;;33.60;15.20;;;;;;;-0.32;85.23;99397.77;128593;1256;113552;-63
2024/03/26 04:13:39;;;;;;;30.00;16.10;;;;;;;-0.35;85.12;99393.63;131763;1253;127720;-63
2024/03/26 04:16:46;;;;;;;28.80;15.10;;;;;;;-0.38;85.04;99393.16;128527;1256;114808;-63
2024/03/26 04:19:50;;;;;;;30.50;16.00;;;;;;;-0.40;85.22;99390.58;128268;1254;113671;-63
2024/03/26 04:22:58;;;;;;;25.40;13.80;;;;;;;-0.42;85.29;99389.38;128581;1257;113661;-63
2024/03/26 04:26:09;;;;;;;29.50;14.30;;;;;;;-0.43;85.55;99387.30;128497;1262;113507;-63
2024/03/26 04:29:21;;;;;;;21.00;12.50;;;;;;;-0.43;85.75;99384.66;128645;1254;127860;-63
2024/03/26 04:32:30;;;;;;;27.30;13.60;;;;;;;-0.40;86.06;99388.81;128673;1256;114735;-63
2024/03/26 04:35:41;;;;;;;22.70;11.40;;;;;;;-0.37;86.08;99389.98;128263;1254;113539;-63
2024/03/26 04:38:49;;;;;;;21.60;11.10;;;;;;;-0.35;86.48;99391.70;128507;1254;113759;-63
2024/03/26 04:41:55;;;;;;;23.50;11.30;;;;;;;-0.33;86.42;99393.05;128522;1258;113478;-63
2024/03/26 04:45:04;;;;;;;23.40;11.90;;;;;;;-0.30;86.37;99393.17;128604;1254;128687;-63
2024/03/26 04:48:09;;;;;;;19.70;11.10;;;;;;;-0.27;86.80;99393.65;128750;1256;114430;-63
2024/03/26 04:51:15;;;;;;;26.70;14.10;;;;;;;-0.23;86.89;99394.96;128722;1254;113435;-63
2024/03/26 04:54:21;;;;;;;24.10;13.50;;;;;;;-0.18;86.91;99390.30;128709;1254;113438;-63
2024/03/26 04:57:32;;;;;;;25.20;12.50;;;;;;;-0.11;87.13;99389.46;128651;1256;113472;-63
2024/03/26 05:00:37;;;;;;;20.20;10.00;;;;;;;-0.05;87.21;99390.05;128572;1276;128842;-63
2024/03/26 05:03:43;;;;;;;18.60;10.50;;;;;;;0.02;87.20;99391.48;128560;1256;114726;-63
2024/03/26 05:06:53;;;;;;;19.40;11.10;;;;;;;0.08;87.45;99391.17;128779;1254;113488;-63
2024/03/26 05:10:11;;;;;;;17.00;9.10;;;;;;;0.16;87.49;99386.27;128628;1259;113478;-63
2024/03/26 05:13:19;;;;;;;10.80;5.90;;;;;;;0.24;87.94;99386.44;128529;1259;113563;-63
2024/03/26 05:16:23;;;;;;;20.20;11.60;;;;;;;0.31;87.90;99385.76;128636;1254;127835;-62
2024/03/26 05:19:27;;;;;;;17.10;8.70;;;;;;;0.38;88.17;99384.53;128681;1270;115136;-62
2024/03/26 05:22:32;;;;;;;24.10;13.00;;;;;;;0.45;88.18;99387.72;128646;1259;113614;-63
2024/03/26 05:25:41;;;;;;;12.70;8.30;;;;;;;0.53;88.12;99389.64;128914;1254;113529;-62
2024/03/26 05:28:46;;;;;;;12.10;6.40;;;;;;;0.60;88.29;99379.46;128837;1259;113480;-61
2024/03/26 05:31:52;;;;;;;20.80;12.10;;;;;;;0.69;88.19;99380.31;128712;1254;129014;-62
2024/03/26 05:35:01;;;;;;;14.50;9.00;;;;;;;0.78;88.21;99374.47;128655;1259;114730;-62
2024/03/26 05:38:08;;;;;;;22.10;10.70;;;;;;;0.88;88.59;99370.70;128666;1257;113451;-62
2024/03/26 05:41:12;;;;;;;18.40;10.00;;;;;;;0.97;88.84;99367.48;128790;1254;113591;-62
2024/03/26 05:44:17;;;;;;;17.20;9.90;;;;;;;1.08;88.50;99371.96;128690;1276;113537;-62
2024/03/26 05:47:22;;;;;;;15.40;9.40;;;;;;;1.19;88.90;99372.58;128738;1276;128880;-63
2024/03/26 05:50:29;;;;;;;21.60;10.30;;;;;;;1.31;88.96;99369.79;128089;1257;1039069;-61
2024/03/26 05:53:33;;;;;;;14.60;7.50;;;;;;;1.41;88.72;99369.52;129387;1258;114090;-64
2024/03/26 05:56:39;;;;;;;7.10;3.40;;;;;;;1.52;89.02;99366.04;129078;1254;113494;-62
2024/03/26 05:59:48;;;;;;;14.30;6.30;;;;;;;1.64;89.12;99368.52;129274;1254;113890;-62
2024/03/26 06:03:04;;;;;;;19.10;10.00;;;;;;;1.76;89.13;99366.08;129041;1276;128709;-63
2024/03/26 06:06:18;;;;;;;13.40;8.00;;;;;;;1.91;89.08;99364.77;128798;1259;114741;-63
2024/03/26 06:09:31;;;;;;;18.70;10.60;;;;;;;2.06;89.25;99361.67;128944;1254;113503;-62
2024/03/26 06:12:40;;;;;;;22.00;11.90;;;;;;;2.26;89.48;99361.11;128779;1254;113508;-63
2024/03/26 06:15:51;;;;;;;17.90;9.10;;;;;;;2.44;89.36;99356.67;128974;1254;113462;-65
2024/03/26 06:18:56;;;;;;;20.30;9.10;;;;;;;2.70;89.50;99355.14;129148;1253;128673;-63
2024/03/26 06:22:01;;;;;;;5.40;2.60;;;;;;;3.05;89.83;99350.98;128720;1257;114728;-63
2024/03/26 06:25:11;;;;;;;16.30;9.10;;;;;;;3.53;90.17;99351.61;130050;1252;113501;-62
2024/03/26 06:28:18;;;;;;;9.10;5.60;;;;;;;4.01;89.83;99348.07;128814;1256;113414;-62
2024/03/26 06:31:34;;;;;;;19.80;10.20;;;;;;;4.46;89.17;99342.11;129065;1257;113516;-63
2024/03/26 06:34:40;;;;;;;15.80;8.80;;;;;;;4.88;88.50;99338.98;129102;1254;128684;-63
2024/03/26 06:37:45;;;;;;;22.20;12.30;;;;;;;5.27;88.03;99335.59;131790;1254;115146;-62
2024/03/26 06:40:52;;;;;;;21.50;11.60;;;;;;;5.63;87.68;99333.13;128986;1255;113528;-64
2024/03/26 06:43:56;;;;;;;18.60;11.70;;;;;;;6.02;87.31;99323.77;129057;1257;113544;-63
2024/03/26 06:47:02;;;;;;;19.40;12.70;;;;;;;6.39;87.08;99314.42;129047;1256;113464;-63
2024/03/26 06:50:11;;;;;;;19.50;11.30;;;;;;;6.72;86.31;99306.59;129021;1269;128700;-62
2024/03/26 06:53:18;;;;;;;20.20;12.30;;;;;;;6.99;85.21;99307.04;128963;1256;114812;-63
2024/03/26 06:56:27;;;;;;;18.90;10.90;;;;;;;7.25;84.74;99306.04;129184;1256;113502;-66
2024/03/26 06:59:33;;;;;;;22.20;13.20;;;;;;;7.55;83.83;99299.16;129164;1254;113531;-68
2024/03/26 07:02:38;;;;;;;20.50;11.60;;;;;;;7.79;83.53;99295.20;129102;1256;113485;-69
2024/03/26 07:05:44;;;;;;;17.40;10.40;;;;;;;8.06;83.14;99288.25;128921;1260;129086;-69
2024/03/26 07:08:47;;;;;;;17.30;9.80;;;;;;;8.37;82.44;99283.83;131800;1254;114713;-67
2024/03/26 07:11:53;;;;;;;16.00;9.40;;;;;;;8.65;82.06;99283.33;128767;1258;114552;-68
2024/03/26 07:15:02;;;;;;;16.30;10.90;;;;;;;8.92;81.06;99277.30;128728;1260;113573;-67
2024/03/26 07:18:10;;;;;;;16.60;10.00;;;;;;;9.14;79.96;99274.23;128563;1259;113511;-68
2024/03/26 07:21:15;;;;;;;14.90;8.50;;;;;;;9.40;79.17;99275.04;128568;1262;129854;-68
2024/03/26 07:24:18;;;;;;;15.20;9.90;;;;;;;9.55;77.34;99272.82;131801;1254;114793;-68
2024/03/26 07:27:24;;;;;;;14.40;8.30;;;;;;;9.79;77.84;99267.60;131663;1258;113599;-69
2024/03/26 07:30:27;;;;;;;15.40;9.70;;;;;;;10.06;76.88;99260.02;131668;1259;113492;-69
2024/03/26 07:33:30;;;;;;;14.30;9.10;;;;;;;10.26;75.86;99258.02;131737;1254;114687;-68
2024/03/26 07:36:36;;;;;;;14.00;9.00;;;;;;;10.55;75.60;99256.72;128651;1260;114780;-69
2024/03/26 07:39:40;;;;;;;12.50;8.30;;;;;;;10.81;73.79;99254.29;131817;1258;114310;-66
2024/03/26 07:42:43;;;;;;;10.70;7.70;;;;;;;11.09;73.22;99256.14;131741;1254;114716;-69
2024/03/26 07:45:49;;;;;;;13.40;8.30;;;;;;;11.39;73.63;99255.50;128631;1260;114717;-66
2024/03/26 07:48:52;;;;;;;12.30;7.90;;;;;;;11.72;73.98;99253.36;131765;1258;113585;-68
2024/03/26 07:51:56;;;;;;;15.20;8.50;;;;;;;12.06;72.82;99244.89;128681;1259;113509;-67
2024/03/26 07:55:01;;;;;;;7.30;5.00;;;;;;;12.39;72.41;99242.27;131704;1254;113487;-67
2024/03/26 07:58:09;;;;;;;13.30;8.80;;;;;;;12.78;70.04;99235.30;131714;1254;114691;-64
2024/03/26 08:01:14;;;;;;;9.90;5.50;;;;;;;13.04;69.34;99226.67;128625;1259;113544;-67
2024/03/26 08:04:17;;;;;;;12.20;8.90;;;;;;;13.15;68.35;99218.16;131693;1257;114665;-66
2024/03/26 08:07:30;;;;;;;10.40;7.60;;;;;;;13.39;67.76;99214.15;131561;1255;129990;-68
2024/03/26 08:10:38;;;;;;;12.30;8.10;;;;;;;13.53;65.87;99204.80;131732;1257;114492;-65
2024/03/26 08:13:41;;;;;;;11.30;7.50;;;;;;;13.69;65.61;99202.78;131718;1254;113461;-68
2024/03/26 08:16:50;;;;;;;11.20;6.60;;;;;;;13.77;63.29;99196.27;128635;1257;113449;-67
2024/03/26 08:19:53;;;;;;;9.30;6.30;;;;;;;13.76;60.77;99192.92;131795;1255;113463;-64
2024/03/26 08:22:56;;;;;;;10.60;6.80;;;;;;;13.87;62.33;99187.55;131702;1254;129082;-68
2024/03/26 08:26:02;;;;;;;9.40;6.50;;;;;;;14.15;62.60;99186.34;131752;1254;114677;-66
2024/03/26 08:29:08;;;;;;;11.30;7.50;;;;;;;14.32;61.79;99178.46;128868;1258;113469;-65
2024/03/26 08:32:11;;;;;;;8.80;6.30;;;;;;;14.45;61.09;99175.77;131537;1263;113546;-67
2024/03/26 08:35:14;;;;;;;10.20;7.10;;;;;;;14.66;60.90;99171.74;131743;1254;114655;-67
2024/03/26 08:38:17;;;;;;;8.50;5.80;;;;;;;14.75;59.65;99170.23;128730;1260;114710;-64
2024/03/26 08:41:21;;;;;;;7.90;5.30;;;;;;;14.48;57.26;99162.96;131828;1255;114738;-66
2024/03/26 08:44:27;;;;;;;9.00;6.50;;;;;;;14.13;56.92;99160.09;128725;1259;114684;-65
2024/03/26 08:47:30;;;;;;;7.60;4.80;;;;;;;13.94;57.25;99159.30;131808;1260;114508;-69
2024/03/26 08:50:34;;;;;;;6.50;3.70;;;;;;;13.68;57.09;99155.33;131756;1259;113443;-66
2024/03/26 08:53:41;;;;;;;6.90;5.00;;;;;;;13.47;55.74;99148.79;128582;1260;129103;-64
2024/03/26 08:56:46;;;;;;;7.50;5.30;;;;;;;13.29;56.06;99145.66;128625;1261;115523;-65
2024/03/26 08:59:55;;;;;;;6.60;4.30;;;;;;;13.24;57.02;99138.58;128728;1258;113463;-65
2024/03/26 09:02:58;;;;;;;6.30;4.60;;;;;;;13.29;56.10;99139.74;131827;1254;113547;-63
2024/03/26 09:06:06;;;;;;;6.90;4.30;;;;;;;13.25;54.63;99135.45;128700;1254;115449;-64
2024/03/26 09:09:14;;;;;;;8.00;5.10;;;;;;;13.12;53.41;99138.75;131755;1255;128854;-64
2024/03/26 09:12:23;;;;;;;6.10;4.20;;;;;;;12.94;53.54;99132.48;128678;1254;114911;-64
2024/03/26 09:15:28;;;;;;;;;;;;;;;12.94;54.43;99132.06;128669;1260;113513;-64
2024/03/26 09:18:33;;;;;;;;;;;;;;;13.02;53.55;99130.38;128769;1255;113468;-65
2024/03/26 09:21:39;;;;;;;6.60;4.00;;;;;;;13.07;54.43;99123.90;128838;1254;113454;-64
2024/03/26 09:24:42;;;;;;;4.80;3.30;;;;;;;13.24;54.11;99117.17;131562;1254;127798;-65
2024/03/26 09:27:48;;;;;;;4.00;3.20;;;;;;;13.38;54.42;99114.47;131790;1254;114716;-67
2024/03/26 09:30:51;;;;;;;3.40;2.10;;;;;;;13.50;52.53;99113.91;131819;1258;113576;-64
2024/03/26 09:33:55;;;;;;;4.70;3.10;;;;;;;13.46;51.29;99120.13;129129;1254;113441;-64
2024/03/26 09:37:03;;;;;;;4.20;2.50;;;;;;;13.43;50.85;99117.69;129185;1266;114085;-63
2024/03/26 09:40:07;;;;;;;6.20;2.90;;;;;;;13.27;48.91;99113.73;129286;1260;128868;-64
2024/03/26 09:43:10;;;;;;;;;;;;;;;13.15;50.76;99114.12;131900;1254;114713;-66
2024/03/26 09:46:17;;;;;;;3.70;3.00;;;;;;;13.14;50.40;99109.91;129207;1257;114792;-64
2024/03/26 09:49:22;;;;;;;5.40;3.00;;;;;;;13.16;50.44;99099.95;129250;1254;113560;-64
2024/03/26 09:52:28;;;;;;;4.20;2.80;;;;;;;13.11;50.03;99098.86;129076;1255;113676;-64
2024/03/26 09:55:33;;;;;;;5.20;3.20;;;;;;;13.08;49.80;99098.90;129088;1258;128850;-64
2024/03/26 09:58:41;;;;;;;6.10;3.30;;;;;;;13.02;49.61;99097.05;129122;1254;114701;-63
2024/03/26 10:01:47;;;;;;;5.40;3.60;;;;;;;12.92;48.83;99089.42;131739;1258;113459;-64
2024/03/26 10:04:55;;;;;;;5.60;4.30;;;;;;;12.82;49.34;99084.28;129000;1254;113421;-64
2024/03/26 10:08:03;;;;;;;6.00;3.70;;;;;;;12.74;49.45;99077.17;128903;1273;113529;-63
2024/03/26 10:11:08;;;;;;;6.80;3.80;;;;;;;12.69;49.02;99069.38;131774;1254;128665;-63
2024/03/26 10:14:11;;;;;;;4.90;3.20;;;;;;;12.64;49.43;99060.09;131839;1254;115228;-65
2024/03/26 10:17:15;;;;;;;8.80;5.00;;;;;;;12.58;49.08;99061.61;131834;1254;114853;-66
2024/03/26 10:20:20;;;;;;;6.20;4.60;;;;;;;12.53;49.76;99057.49;128871;1254;113549;-63
2024/03/26 10:23:23;;;;;;;5.70;3.60;;;;;;;12.56;50.35;99053.13;131795;1254;113923;-63
2024/03/26 10:26:31;;;;;;;6.90;4.40;;;;;;;12.62;49.99;99045.04;128780;1257;129783;-64
2024/03/26 10:29:39;;;;;;;5.20;2.70;;;;;;;12.67;50.42;99039.20;128904;1256;114713;-64
2024/03/26 10:32:56;;;;;;;7.90;4.30;;;;;;;12.70;49.82;99032.71;128839;1254;114048;-64
2024/03/26 10:36:02;;;;;;;5.20;3.40;;;;;;;12.67;49.48;99034.42;128750;1257;113504;-64
2024/03/26 10:39:10;;;;;;;4.60;3.10;;;;;;;12.62;49.40;99025.98;128751;1258;113523;-64
2024/03/26 10:42:18;;;;;;;6.50;4.50;;;;;;;12.56;49.12;99022.52;128860;1257;128966;-63
2024/03/26 10:45:25;;;;;;;5.10;3.30;;;;;;;12.55;49.89;99016.34;128921;1254;115692;-63
2024/03/26 10:48:32;;;;;;;5.60;3.50;;;;;;;12.63;49.73;99006.60;128895;1254;113505;-65
2024/03/26 10:51:38;;;;;;;6.00;3.70;;;;;;;12.70;49.94;99004.08;131813;1254;113528;-64
2024/03/26 10:54:47;;;;;;;5.90;3.50;;;;;;;12.79;49.89;98998.39;128902;1257;113555;-66
2024/03/26 10:57:51;;;;;;;5.10;3.70;;;;;;;12.85;48.84;98992.88;131795;1254;128747;-65
2024/03/26 11:00:57;;;;;;;3.40;2.00;;;;;;;12.90;48.88;98992.45;131831;1252;114803;-65
2024/03/26 11:04:10;;;;;;;4.60;2.80;;;;;;;12.95;48.01;98987.23;131681;1255;114664;-65
2024/03/26 11:07:33;;;;;;;;;;;;;;;;;;;;;
2024/03/26 11:10:57;;;;;;;3.10;2.20;;;;;;;13.12;48.42;98973.80;131649;1254;114563;-65
2024/03/26 11:14:07;;;;;;;3.70;1.90;;;;;;;13.23;48.19;98967.18;131715;1254;129061;-65
2024/03/26 11:17:15;;;;;;;3.80;2.70;;;;;;;13.33;47.45;98963.48;131748;1253;114777;-64
2024/03/26 11:20:23;;;;;;;;;;;;;;;13.37;46.85;98955.83;131705;1257;113540;-65
2024/03/26 11:23:32;;;;;;;4.60;2.70;;;;;;;13.38;46.93;98951.09;131752;1254;113487;-64
2024/03/26 11:26:37;;;;;;;3.40;2.40;;;;;;;13.39;46.50;98952.10;131758;1252;113492;-65
2024/03/26 11:29:44;;;;;;;3.00;1.60;;;;;;;13.41;47.15;98945.69;131686;1254;114673;-66
2024/03/26 11:32:49;;;;;;;4.10;2.30;;;;;;;13.46;46.56;98931.83;131781;1256;115563;-64
2024/03/26 11:35:56;;;;;;;3.50;1.70;;;;;;;13.51;46.41;98927.80;131769;1254;114653;-65
2024/03/26 11:38:58;;;;;;;6.10;2.70;;;;;;;13.54;45.87;98925.74;131830;1254;115465;-63
2024/03/26 11:42:06;;;;;;;3.90;2.40;;;;;;;13.55;46.32;98917.77;128975;1257;113536;-65
2024/03/26 11:45:09;;;;;;;4.50;2.70;;;;;;;13.58;46.51;98912.55;131710;1254;128859;-63
2024/03/26 11:48:19;;;;;;;4.30;2.00;;;;;;;13.64;46.80;98906.08;131818;1254;114719;-64
2024/03/26 11:51:24;;;;;;;3.40;2.40;;;;;;;13.71;46.16;98901.04;128825;1254;113587;-64
2024/03/26 11:54:27;;;;;;;;;;;;;;;13.73;45.37;98899.77;128914;1257;113513;-64
2024/03/26 11:57:32;;;;;;;3.50;2.70;;;;;;;13.75;46.00;98899.27;131791;1254;114919;-66
2024/03/26 12:00:37;;;;;;;3.70;1.80;;;;;;;13.79;46.00;98883.13;131770;1254;128737;-64
2024/03/26 12:03:55;;;;;;;3.30;2.10;;;;;;;13.83;45.44;98889.05;131644;1254;113506;-64
2024/03/26 12:07:00;;;;;;;5.40;2.30;;;;;;;13.88;45.36;98884.37;129303;1254;113585;-64
2024/03/26 12:10:04;;;;;;;4.40;2.30;;;;;;;13.91;45.45;98875.45;131732;1254;115268;-66
2024/03/26 12:13:09;;;;;;;3.50;1.70;;;;;;;13.95;45.51;98873.08;128687;1257;113559;-64
2024/03/26 12:16:25;;;;;;;3.10;1.90;;;;;;;14.00;45.55;98868.39;131833;1252;126830;-64
2024/03/26 12:19:28;;;;;;;5.20;2.10;;;;;;;14.04;44.94;98860.19;131809;1254;114720;-65
2024/03/26 12:22:32;;;;;;;4.20;2.20;;;;;;;14.07;44.50;98850.70;131887;1255;114591;-64
2024/03/26 12:25:36;;;;;;;3.70;2.20;;;;;;;14.12;44.79;98844.54;131899;1256;114557;-65
2024/03/26 12:28:39;;;;;;;2.40;1.40;;;;;;;14.17;45.06;98829.41;131875;1254;114719;-64
2024/03/26 12:31:42;;;;;;;3.10;1.90;;;;;;;14.23;45.17;98827.76;131852;1254;114234;-64
2024/03/26 12:34:44;;;;;;;2.40;1.70;;;;;;;14.27;44.42;98820.60;131884;1254;114694;-65
2024/03/26 12:37:50;;;;;;;2.10;1.30;;;;;;;14.31;43.79;98812.22;131839;1254;114466;-64
2024/03/26 12:40:55;;;;;;;2.60;1.40;;;;;;;14.34;44.13;98795.60;131836;1254;113469;-63
2024/03/26 12:43:59;;;;;;;2.20;1.40;;;;;;;14.37;44.34;98792.23;129016;1253;114703;-65
2024/03/26 12:47:05;;;;;;;2.60;1.30;;;;;;;14.44;44.20;98785.84;128925;1254;127839;-64
2024/03/26 12:50:11;;;;;;;2.10;0.90;;;;;;;14.54;43.90;98773.86;129029;1256;115500;-65
2024/03/26 12:53:16;;;;;;;3.10;1.10;;;;;;;14.59;43.92;98764.90;128882;1256;113509;-64
2024/03/26 12:56:20;;;;;;;1.90;1.00;;;;;;;14.65;43.58;98765.80;131879;1253;113445;-64
2024/03/26 12:59:27;;;;;;;1.70;0.70;;;;;;;14.71;43.55;98751.48;131838;1253;113996;-64
2024/03/26 13:02:33;;;;;;;1.50;0.70;;;;;;;14.73;42.07;98753.80;128892;1257;128808;-65
2024/03/26 13:05:37;;;;;;;1.50;0.80;;;;;;;14.70;41.10;98748.67;128522;1257;114314;-65
2024/03/26 13:08:44;;;;;;;2.00;0.80;;;;;;;14.67;41.24;98753.10;128985;1253;113520;-64
2024/03/26 13:11:51;;;;;;;1.30;0.60;;;;;;;14.70;41.62;98749.07;128957;1254;113603;-63
2024/03/26 13:15:03;;;;;;;3.00;1.20;;;;;;;14.74;41.37;98749.80;128863;1253;113564;-64
2024/03/26 13:18:21;;;;;;;1.60;0.90;;;;;;;14.78;41.17;98743.70;128914;1256;128381;-63
2024/03/26 13:21:28;;;;;;;1.60;1.00;;;;;;;14.82;41.62;98737.91;128614;1260;114678;-65
2024/03/26 13:24:36;;;;;;;1.10;0.60;;;;;;;14.86;41.91;98728.86;128951;1253;113787;-64
2024/03/26 13:27:40;;;;;;;1.70;1.00;;;;;;;14.90;40.82;98724.43;128937;1254;113540;-65
2024/03/26 13:30:54;;;;;;;2.00;1.00;;;;;;;14.91;41.09;98721.77;128809;1252;113467;-67
2024/03/26 13:34:08;;;;;;;2.90;1.00;;;;;;;14.93;41.48;98725.36;128733;1254;128820;-67
2024/03/26 13:37:15;;;;;;;1.40;1.00;;;;;;;14.91;40.97;98723.83;128728;1256;115167;-67
2024/03/26 13:40:18;;;;;;;1.50;0.70;;;;;;;14.87;41.04;98709.60;131482;1254;114905;-66
2024/03/26 13:43:25;;;;;;;1.50;0.60;;;;;;;14.82;39.34;98707.85;131844;1253;113885;-66
2024/03/26 13:46:29;;;;;;;1.90;1.10;;;;;;;14.81;39.73;98701.12;131706;1254;114818;-66
2024/03/26 13:49:33;;;;;;;2.20;1.00;;;;;;;14.80;40.09;98702.02;131824;1254;127699;-66
2024/03/26 13:52:37;;;;;;;4.80;1.20;;;;;;;14.80;39.64;98703.83;131796;1254;114806;-66
2024/03/26 13:55:41;;;;;;;;;;;;;;;14.78;39.61;98704.00;131586;1254;113532;-65
2024/03/26 13:58:48;;;;;;;2.00;1.00;;;;;;;14.75;38.55;98702.81;131917;1254;113458;-66
2024/03/26 14:06:40;;;;;;;;;;;;;;;;;;;;;
2024/03/26 14:09:46;;;;;;;1.50;0.90;;;;;;;15.00;38.63;98683.96;131106;1257;114717;-65
2024/03/26 14:12:50;;;;;;;2.80;0.70;;;;;;;15.11;38.80;98678.36;131497;1258;114886;-67
2024/03/26 14:15:54;;;;;;;2.20;1.10;;;;;;;15.26;38.20;98670.20;131557;1258;113667;-64
2024/03/26 14:19:06;;;;;;;;;;;;;;;15.42;37.53;98664.17;128466;1257;113715;-63
2024/03/26 14:22:13;;;;;;;1.90;1.00;;;;;;;15.54;37.50;98653.77;128393;1273;129766;-64
2024/03/26 14:25:18;;;;;;;1.60;0.50;;;;;;;15.66;36.83;98648.89;128222;1263;114897;-64
2024/03/26 14:28:28;;;;;;;5.40;0.70;;;;;;;15.78;37.26;98646.06;128151;1265;113527;-63